sensor_id;sensor_type;location;lat;lon;timestamp;P1;durP1;ratioP1;P2;durP2;ratioP2
57325;SDS011;43161;50.950;18.224;2023-02-19T00:00:04;19.00;;;7.50;;
57325;SDS011;43161;50.950;18.224;2023-02-19T00:02:30;16.60;;;7.20;;
57325;SDS011;43161;50.950;18.224;2023-02-19T00:04:56;18.90;;;7.60;;
57325;SDS011;43161;50.950;18.224;2023-02-19T00:07:22;17.10;;;7.00;;
57325;SDS011;43161;50.950;18.224;2023-02-19T00:09:47;17.70;;;8.20;;
57325;SDS011;43161;50.950;18.224;2023-02-19T00:12:13;19.90;;;7.90;;
57325;SDS011;43161;50.950;18.224;2023-02-19T00:14:39;19.20;;;7.80;;
57325;SDS011;43161;50.950;18.224;2023-02-19T00:17:05;18.80;;;7.30;;
57325;SDS011;43161;50.950;18.224;2023-02-19T00:19:30;18.00;;;7.10;;
57325;SDS011;43161;50.950;18.224;2023-02-19T00:21:56;18.50;;;6.80;;
57325;SDS011;43161;50.950;18.224;2023-02-19T00:24:21;19.50;;;7.50;;
57325;SDS011;43161;50.950;18.224;2023-02-19T00:26:47;16.30;;;7.30;;
57325;SDS011;43161;50.950;18.224;2023-02-19T00:29:17;15.80;;;6.80;;
57325;SDS011;43161;50.950;18.224;2023-02-19T00:31:44;14.20;;;5.80;;
57325;SDS011;43161;50.950;18.224;2023-02-19T00:34:11;15.30;;;6.40;;
57325;SDS011;43161;50.950;18.224;2023-02-19T00:36:38;15.10;;;6.10;;
57325;SDS011;43161;50.950;18.224;2023-02-19T00:39:05;14.40;;;5.00;;
57325;SDS011;43161;50.950;18.224;2023-02-19T00:41:31;11.70;;;4.70;;
57325;SDS011;43161;50.950;18.224;2023-02-19T00:48:55;11.10;;;4.00;;
57325;SDS011;43161;50.950;18.224;2023-02-19T00:51:22;11.90;;;4.10;;
57325;SDS011;43161;50.950;18.224;2023-02-19T00:53:49;10.00;;;3.20;;
57325;SDS011;43161;50.950;18.224;2023-02-19T00:56:15;10.90;;;4.10;;
57325;SDS011;43161;50.950;18.224;2023-02-19T00:58:41;10.50;;;3.90;;
57325;SDS011;43161;50.950;18.224;2023-02-19T01:01:07;10.20;;;3.50;;
57325;SDS011;43161;50.950;18.224;2023-02-19T01:03:33;10.50;;;3.70;;
57325;SDS011;43161;50.950;18.224;2023-02-19T01:06:00;10.80;;;3.90;;
57325;SDS011;43161;50.950;18.224;2023-02-19T01:08:26;11.30;;;4.00;;
57325;SDS011;43161;50.950;18.224;2023-02-19T01:10:52;10.90;;;3.90;;
57325;SDS011;43161;50.950;18.224;2023-02-19T01:13:18;11.00;;;3.80;;
57325;SDS011;43161;50.950;18.224;2023-02-19T01:15:43;12.90;;;4.60;;
57325;SDS011;43161;50.950;18.224;2023-02-19T01:18:10;13.90;;;4.90;;
57325;SDS011;43161;50.950;18.224;2023-02-19T01:20:42;14.10;;;5.00;;
57325;SDS011;43161;50.950;18.224;2023-02-19T01:23:09;25.40;;;10.00;;
57325;SDS011;43161;50.950;18.224;2023-02-19T01:25:39;32.30;;;11.70;;
57325;SDS011;43161;50.950;18.224;2023-02-19T01:28:05;25.70;;;10.20;;
57325;SDS011;43161;50.950;18.224;2023-02-19T01:30:34;25.40;;;9.40;;
57325;SDS011;43161;50.950;18.224;2023-02-19T01:33:07;12.00;;;4.90;;
57325;SDS011;43161;50.950;18.224;2023-02-19T01:35:37;12.60;;;5.00;;
57325;SDS011;43161;50.950;18.224;2023-02-19T01:38:03;12.80;;;5.30;;
57325;SDS011;43161;50.950;18.224;2023-02-19T01:40:29;10.60;;;4.20;;
57325;SDS011;43161;50.950;18.224;2023-02-19T01:42:54;12.10;;;5.40;;
57325;SDS011;43161;50.950;18.224;2023-02-19T01:47:57;12.70;;;5.70;;
57325;SDS011;43161;50.950;18.224;2023-02-19T01:50:27;13.20;;;6.00;;
57325;SDS011;43161;50.950;18.224;2023-02-19T01:52:54;16.90;;;9.90;;
57325;SDS011;43161;50.950;18.224;2023-02-19T01:55:21;12.80;;;6.50;;
57325;SDS011;43161;50.950;18.224;2023-02-19T01:57:47;13.60;;;5.90;;
57325;SDS011;43161;50.950;18.224;2023-02-19T02:00:16;14.90;;;5.60;;
57325;SDS011;43161;50.950;18.224;2023-02-19T02:02:44;19.40;;;7.40;;
57325;SDS011;43161;50.950;18.224;2023-02-19T02:08:05;24.80;;;12.10;;
57325;SDS011;43161;50.950;18.224;2023-02-19T02:10:47;24.60;;;11.50;;
57325;SDS011;43161;50.950;18.224;2023-02-19T02:13:14;17.30;;;6.20;;
57325;SDS011;43161;50.950;18.224;2023-02-19T02:15:43;19.10;;;8.00;;
57325;SDS011;43161;50.950;18.224;2023-02-19T02:18:18;14.20;;;7.70;;
57325;SDS011;43161;50.950;18.224;2023-02-19T02:32:39;15.00;;;6.90;;
57325;SDS011;43161;50.950;18.224;2023-02-19T02:35:19;17.50;;;6.20;;
57325;SDS011;43161;50.950;18.224;2023-02-19T02:37:47;14.60;;;5.40;;
57325;SDS011;43161;50.950;18.224;2023-02-19T02:40:14;13.10;;;5.40;;
57325;SDS011;43161;50.950;18.224;2023-02-19T02:42:41;21.80;;;15.00;;
57325;SDS011;43161;50.950;18.224;2023-02-19T02:50:45;33.00;;;12.00;;
57325;SDS011;43161;50.950;18.224;2023-02-19T02:53:20;14.30;;;5.80;;
57325;SDS011;43161;50.950;18.224;2023-02-19T02:56:05;15.40;;;9.20;;
57325;SDS011;43161;50.950;18.224;2023-02-19T02:58:31;16.50;;;6.90;;
57325;SDS011;43161;50.950;18.224;2023-02-19T03:00:59;16.50;;;7.40;;
57325;SDS011;43161;50.950;18.224;2023-02-19T03:03:42;18.80;;;7.90;;
57325;SDS011;43161;50.950;18.224;2023-02-19T03:06:10;16.40;;;7.20;;
57325;SDS011;43161;50.950;18.224;2023-02-19T03:08:41;20.60;;;11.10;;
57325;SDS011;43161;50.950;18.224;2023-02-19T03:11:10;20.80;;;11.40;;
57325;SDS011;43161;50.950;18.224;2023-02-19T03:13:54;18.90;;;8.80;;
57325;SDS011;43161;50.950;18.224;2023-02-19T03:16:40;22.60;;;9.70;;
57325;SDS011;43161;50.950;18.224;2023-02-19T03:19:22;22.40;;;11.20;;
57325;SDS011;43161;50.950;18.224;2023-02-19T03:24:27;21.90;;;11.80;;
57325;SDS011;43161;50.950;18.224;2023-02-19T03:27:13;22.20;;;11.80;;
57325;SDS011;43161;50.950;18.224;2023-02-19T03:29:40;24.20;;;11.80;;
57325;SDS011;43161;50.950;18.224;2023-02-19T03:32:11;37.00;;;19.20;;
57325;SDS011;43161;50.950;18.224;2023-02-19T03:37:30;34.70;;;12.80;;
57325;SDS011;43161;50.950;18.224;2023-02-19T03:39:59;29.60;;;11.40;;
57325;SDS011;43161;50.950;18.224;2023-02-19T03:42:35;29.30;;;10.80;;
57325;SDS011;43161;50.950;18.224;2023-02-19T03:45:13;31.10;;;13.70;;
57325;SDS011;43161;50.950;18.224;2023-02-19T03:56:27;25.40;;;10.00;;
57325;SDS011;43161;50.950;18.224;2023-02-19T03:59:00;28.40;;;11.10;;
57325;SDS011;43161;50.950;18.224;2023-02-19T04:01:31;25.30;;;8.40;;
57325;SDS011;43161;50.950;18.224;2023-02-19T04:07:00;21.00;;;8.60;;
57325;SDS011;43161;50.950;18.224;2023-02-19T04:09:28;25.40;;;9.80;;
57325;SDS011;43161;50.950;18.224;2023-02-19T04:11:58;22.30;;;8.40;;
57325;SDS011;43161;50.950;18.224;2023-02-19T04:17:12;16.80;;;7.30;;
57325;SDS011;43161;50.950;18.224;2023-02-19T04:19:43;16.80;;;7.60;;
57325;SDS011;43161;50.950;18.224;2023-02-19T04:22:10;19.00;;;9.50;;
57325;SDS011;43161;50.950;18.224;2023-02-19T04:24:37;27.20;;;11.40;;
57325;SDS011;43161;50.950;18.224;2023-02-19T04:27:09;17.60;;;9.40;;
57325;SDS011;43161;50.950;18.224;2023-02-19T04:29:35;25.00;;;9.10;;
57325;SDS011;43161;50.950;18.224;2023-02-19T04:32:02;29.90;;;12.00;;
57325;SDS011;43161;50.950;18.224;2023-02-19T04:34:27;26.90;;;11.40;;
57325;SDS011;43161;50.950;18.224;2023-02-19T04:36:53;29.80;;;10.10;;
57325;SDS011;43161;50.950;18.224;2023-02-19T04:39:19;22.40;;;9.00;;
57325;SDS011;43161;50.950;18.224;2023-02-19T04:41:44;21.30;;;7.90;;
57325;SDS011;43161;50.950;18.224;2023-02-19T04:44:10;32.30;;;11.30;;
57325;SDS011;43161;50.950;18.224;2023-02-19T04:46:36;30.90;;;12.50;;
57325;SDS011;43161;50.950;18.224;2023-02-19T04:49:01;26.90;;;11.10;;
57325;SDS011;43161;50.950;18.224;2023-02-19T04:51:27;21.10;;;9.30;;
57325;SDS011;43161;50.950;18.224;2023-02-19T04:53:53;32.40;;;17.20;;
57325;SDS011;43161;50.950;18.224;2023-02-19T04:56:20;43.30;;;20.70;;
57325;SDS011;43161;50.950;18.224;2023-02-19T04:58:46;46.70;;;24.60;;
57325;SDS011;43161;50.950;18.224;2023-02-19T05:01:12;34.20;;;19.10;;
57325;SDS011;43161;50.950;18.224;2023-02-19T05:03:38;21.10;;;11.50;;
57325;SDS011;43161;50.950;18.224;2023-02-19T05:06:04;30.20;;;19.30;;
57325;SDS011;43161;50.950;18.224;2023-02-19T05:08:32;23.50;;;15.10;;
57325;SDS011;43161;50.950;18.224;2023-02-19T05:10:59;18.30;;;10.30;;
57325;SDS011;43161;50.950;18.224;2023-02-19T05:13:25;21.70;;;12.10;;
57325;SDS011;43161;50.950;18.224;2023-02-19T05:15:58;45.10;;;23.50;;
57325;SDS011;43161;50.950;18.224;2023-02-19T05:18:24;24.40;;;11.90;;
57325;SDS011;43161;50.950;18.224;2023-02-19T05:20:50;18.20;;;9.60;;
57325;SDS011;43161;50.950;18.224;2023-02-19T05:23:17;16.70;;;8.70;;
57325;SDS011;43161;50.950;18.224;2023-02-19T05:25:43;13.00;;;5.70;;
57325;SDS011;43161;50.950;18.224;2023-02-19T05:28:09;14.70;;;7.20;;
57325;SDS011;43161;50.950;18.224;2023-02-19T05:30:51;13.80;;;6.70;;
57325;SDS011;43161;50.950;18.224;2023-02-19T05:33:18;11.30;;;5.10;;
57325;SDS011;43161;50.950;18.224;2023-02-19T05:35:45;12.10;;;4.70;;
57325;SDS011;43161;50.950;18.224;2023-02-19T05:38:13;12.20;;;4.70;;
57325;SDS011;43161;50.950;18.224;2023-02-19T05:40:39;11.90;;;4.90;;
57325;SDS011;43161;50.950;18.224;2023-02-19T05:43:05;12.90;;;5.40;;
57325;SDS011;43161;50.950;18.224;2023-02-19T05:45:31;20.30;;;10.10;;
57325;SDS011;43161;50.950;18.224;2023-02-19T05:47:57;121.40;;;51.20;;
57325;SDS011;43161;50.950;18.224;2023-02-19T05:50:23;174.80;;;62.90;;
57325;SDS011;43161;50.950;18.224;2023-02-19T05:52:49;81.20;;;28.60;;
57325;SDS011;43161;50.950;18.224;2023-02-19T05:55:15;89.90;;;31.60;;
57325;SDS011;43161;50.950;18.224;2023-02-19T05:57:41;162.90;;;55.30;;
57325;SDS011;43161;50.950;18.224;2023-02-19T06:00:08;307.90;;;95.00;;
57325;SDS011;43161;50.950;18.224;2023-02-19T06:02:38;421.40;;;159.20;;
57325;SDS011;43161;50.950;18.224;2023-02-19T06:05:04;248.80;;;93.20;;
57325;SDS011;43161;50.950;18.224;2023-02-19T06:07:30;227.60;;;70.60;;
57325;SDS011;43161;50.950;18.224;2023-02-19T06:09:56;68.40;;;27.70;;
57325;SDS011;43161;50.950;18.224;2023-02-19T06:12:22;123.40;;;51.10;;
57325;SDS011;43161;50.950;18.224;2023-02-19T06:14:48;95.00;;;45.20;;
57325;SDS011;43161;50.950;18.224;2023-02-19T06:17:14;48.30;;;27.10;;
57325;SDS011;43161;50.950;18.224;2023-02-19T06:19:40;32.40;;;20.60;;
57325;SDS011;43161;50.950;18.224;2023-02-19T06:22:07;15.40;;;8.60;;
57325;SDS011;43161;50.950;18.224;2023-02-19T06:24:33;14.70;;;7.80;;
57325;SDS011;43161;50.950;18.224;2023-02-19T06:27:00;13.80;;;4.90;;
57325;SDS011;43161;50.950;18.224;2023-02-19T06:29:25;13.60;;;5.70;;
57325;SDS011;43161;50.950;18.224;2023-02-19T06:31:51;13.00;;;5.80;;
57325;SDS011;43161;50.950;18.224;2023-02-19T06:34:17;14.50;;;5.00;;
57325;SDS011;43161;50.950;18.224;2023-02-19T06:36:43;14.20;;;5.50;;
57325;SDS011;43161;50.950;18.224;2023-02-19T06:39:09;12.50;;;4.80;;
57325;SDS011;43161;50.950;18.224;2023-02-19T06:41:34;11.80;;;4.30;;
57325;SDS011;43161;50.950;18.224;2023-02-19T06:44:00;13.50;;;5.60;;
57325;SDS011;43161;50.950;18.224;2023-02-19T06:46:26;13.10;;;5.10;;
57325;SDS011;43161;50.950;18.224;2023-02-19T06:48:51;15.40;;;5.70;;
57325;SDS011;43161;50.950;18.224;2023-02-19T06:51:18;16.70;;;7.60;;
57325;SDS011;43161;50.950;18.224;2023-02-19T06:53:48;17.10;;;7.70;;
57325;SDS011;43161;50.950;18.224;2023-02-19T06:58:57;29.90;;;16.50;;
57325;SDS011;43161;50.950;18.224;2023-02-19T07:01:24;38.50;;;23.00;;
57325;SDS011;43161;50.950;18.224;2023-02-19T07:03:51;22.50;;;12.40;;
57325;SDS011;43161;50.950;18.224;2023-02-19T07:06:18;12.70;;;5.50;;
57325;SDS011;43161;50.950;18.224;2023-02-19T07:08:44;19.90;;;10.80;;
57325;SDS011;43161;50.950;18.224;2023-02-19T07:11:10;18.50;;;8.30;;
57325;SDS011;43161;50.950;18.224;2023-02-19T07:13:36;19.70;;;10.60;;
57325;SDS011;43161;50.950;18.224;2023-02-19T07:16:03;21.30;;;9.30;;
57325;SDS011;43161;50.950;18.224;2023-02-19T07:18:32;39.60;;;16.40;;
57325;SDS011;43161;50.950;18.224;2023-02-19T07:23:41;32.40;;;12.40;;
57325;SDS011;43161;50.950;18.224;2023-02-19T07:26:11;18.90;;;8.00;;
57325;SDS011;43161;50.950;18.224;2023-02-19T07:28:45;30.50;;;16.80;;
57325;SDS011;43161;50.950;18.224;2023-02-19T07:31:12;17.40;;;7.40;;
57325;SDS011;43161;50.950;18.224;2023-02-19T07:33:38;15.10;;;6.40;;
57325;SDS011;43161;50.950;18.224;2023-02-19T07:36:06;16.10;;;6.40;;
57325;SDS011;43161;50.950;18.224;2023-02-19T07:38:32;15.20;;;6.90;;
57325;SDS011;43161;50.950;18.224;2023-02-19T07:40:59;17.70;;;7.00;;
57325;SDS011;43161;50.950;18.224;2023-02-19T07:43:27;17.30;;;6.80;;
57325;SDS011;43161;50.950;18.224;2023-02-19T07:45:56;13.40;;;5.30;;
57325;SDS011;43161;50.950;18.224;2023-02-19T07:48:21;15.80;;;7.00;;
57325;SDS011;43161;50.950;18.224;2023-02-19T07:50:54;16.40;;;8.30;;
57325;SDS011;43161;50.950;18.224;2023-02-19T07:53:20;19.50;;;8.80;;
57325;SDS011;43161;50.950;18.224;2023-02-19T07:55:47;21.20;;;11.70;;
57325;SDS011;43161;50.950;18.224;2023-02-19T07:58:12;21.60;;;10.60;;
57325;SDS011;43161;50.950;18.224;2023-02-19T08:00:38;14.10;;;5.90;;
57325;SDS011;43161;50.950;18.224;2023-02-19T08:03:04;15.00;;;5.90;;
57325;SDS011;43161;50.950;18.224;2023-02-19T08:05:31;14.60;;;5.40;;
57325;SDS011;43161;50.950;18.224;2023-02-19T08:07:58;13.00;;;5.20;;
57325;SDS011;43161;50.950;18.224;2023-02-19T08:10:25;16.40;;;6.30;;
57325;SDS011;43161;50.950;18.224;2023-02-19T08:13:08;13.30;;;5.10;;
57325;SDS011;43161;50.950;18.224;2023-02-19T08:18:33;10.40;;;3.70;;
57325;SDS011;43161;50.950;18.224;2023-02-19T08:20:59;11.20;;;3.90;;
57325;SDS011;43161;50.950;18.224;2023-02-19T08:23:26;8.40;;;2.70;;
57325;SDS011;43161;50.950;18.224;2023-02-19T08:25:52;9.30;;;2.70;;
57325;SDS011;43161;50.950;18.224;2023-02-19T08:28:21;8.00;;;2.50;;
57325;SDS011;43161;50.950;18.224;2023-02-19T08:30:47;11.40;;;4.00;;
57325;SDS011;43161;50.950;18.224;2023-02-19T08:33:14;15.90;;;7.20;;
57325;SDS011;43161;50.950;18.224;2023-02-19T08:35:41;14.20;;;6.50;;
57325;SDS011;43161;50.950;18.224;2023-02-19T08:38:07;14.80;;;6.90;;
57325;SDS011;43161;50.950;18.224;2023-02-19T08:40:35;15.20;;;6.40;;
57325;SDS011;43161;50.950;18.224;2023-02-19T08:43:02;12.10;;;4.70;;
57325;SDS011;43161;50.950;18.224;2023-02-19T08:45:30;11.40;;;4.30;;
57325;SDS011;43161;50.950;18.224;2023-02-19T08:48:00;13.90;;;5.40;;
57325;SDS011;43161;50.950;18.224;2023-02-19T08:50:25;17.80;;;7.90;;
57325;SDS011;43161;50.950;18.224;2023-02-19T08:52:51;18.20;;;9.20;;
57325;SDS011;43161;50.950;18.224;2023-02-19T08:55:18;15.10;;;6.30;;
57325;SDS011;43161;50.950;18.224;2023-02-19T08:57:43;19.20;;;9.20;;
57325;SDS011;43161;50.950;18.224;2023-02-19T09:00:10;21.00;;;9.90;;
57325;SDS011;43161;50.950;18.224;2023-02-19T09:02:36;39.60;;;21.30;;
57325;SDS011;43161;50.950;18.224;2023-02-19T09:05:02;15.70;;;7.00;;
57325;SDS011;43161;50.950;18.224;2023-02-19T09:07:30;26.40;;;12.90;;
57325;SDS011;43161;50.950;18.224;2023-02-19T09:09:56;30.10;;;17.60;;
57325;SDS011;43161;50.950;18.224;2023-02-19T09:12:23;12.10;;;4.30;;
57325;SDS011;43161;50.950;18.224;2023-02-19T09:14:49;13.60;;;4.60;;
57325;SDS011;43161;50.950;18.224;2023-02-19T09:17:15;15.90;;;6.90;;
57325;SDS011;43161;50.950;18.224;2023-02-19T09:19:41;12.40;;;5.20;;
57325;SDS011;43161;50.950;18.224;2023-02-19T09:22:07;18.30;;;7.30;;
57325;SDS011;43161;50.950;18.224;2023-02-19T09:24:33;21.90;;;9.90;;
57325;SDS011;43161;50.950;18.224;2023-02-19T09:26:59;21.40;;;7.60;;
57325;SDS011;43161;50.950;18.224;2023-02-19T09:29:25;21.80;;;8.60;;
57325;SDS011;43161;50.950;18.224;2023-02-19T09:31:55;19.60;;;6.40;;
57325;SDS011;43161;50.950;18.224;2023-02-19T09:34:22;25.90;;;10.00;;
57325;SDS011;43161;50.950;18.224;2023-02-19T09:36:49;23.10;;;8.00;;
57325;SDS011;43161;50.950;18.224;2023-02-19T09:39:15;36.70;;;11.30;;
57325;SDS011;43161;50.950;18.224;2023-02-19T09:41:45;32.10;;;10.90;;
57325;SDS011;43161;50.950;18.224;2023-02-19T09:47:05;17.20;;;6.40;;
57325;SDS011;43161;50.950;18.224;2023-02-19T09:49:37;21.50;;;5.90;;
57325;SDS011;43161;50.950;18.224;2023-02-19T09:54:51;56.30;;;13.20;;
57325;SDS011;43161;50.950;18.224;2023-02-19T09:57:22;54.50;;;12.00;;
57325;SDS011;43161;50.950;18.224;2023-02-19T09:59:49;31.10;;;7.80;;
57325;SDS011;43161;50.950;18.224;2023-02-19T10:02:20;12.10;;;3.20;;
57325;SDS011;43161;50.950;18.224;2023-02-19T10:04:47;16.20;;;6.20;;
57325;SDS011;43161;50.950;18.224;2023-02-19T10:07:57;16.50;;;3.90;;
57325;SDS011;43161;50.950;18.224;2023-02-19T10:12:48;11.50;;;5.30;;
57325;SDS011;43161;50.950;18.224;2023-02-19T10:18:01;31.70;;;7.50;;
57325;SDS011;43161;50.950;18.224;2023-02-19T10:20:28;10.90;;;3.10;;
57325;SDS011;43161;50.950;18.224;2023-02-19T10:22:57;11.60;;;3.20;;
57325;SDS011;43161;50.950;18.224;2023-02-19T10:25:26;14.70;;;3.10;;
57325;SDS011;43161;50.950;18.224;2023-02-19T10:27:52;10.20;;;2.30;;
57325;SDS011;43161;50.950;18.224;2023-02-19T10:30:22;10.50;;;2.70;;
57325;SDS011;43161;50.950;18.224;2023-02-19T10:35:36;8.70;;;2.20;;
57325;SDS011;43161;50.950;18.224;2023-02-19T10:38:03;13.80;;;3.70;;
57325;SDS011;43161;50.950;18.224;2023-02-19T10:40:31;12.20;;;3.90;;
57325;SDS011;43161;50.950;18.224;2023-02-19T10:43:00;13.10;;;3.60;;
57325;SDS011;43161;50.950;18.224;2023-02-19T10:47:53;9.30;;;2.80;;
57325;SDS011;43161;50.950;18.224;2023-02-19T10:50:27;9.00;;;2.30;;
57325;SDS011;43161;50.950;18.224;2023-02-19T10:52:56;12.40;;;3.90;;
57325;SDS011;43161;50.950;18.224;2023-02-19T10:55:28;10.20;;;2.90;;
57325;SDS011;43161;50.950;18.224;2023-02-19T10:57:55;10.20;;;3.60;;
57325;SDS011;43161;50.950;18.224;2023-02-19T11:00:28;10.50;;;2.90;;
57325;SDS011;43161;50.950;18.224;2023-02-19T11:03:11;12.20;;;3.30;;
57325;SDS011;43161;50.950;18.224;2023-02-19T11:08:19;16.50;;;5.80;;
57325;SDS011;43161;50.950;18.224;2023-02-19T11:10:46;17.20;;;5.00;;
57325;SDS011;43161;50.950;18.224;2023-02-19T11:13:14;22.20;;;8.50;;
57325;SDS011;43161;50.950;18.224;2023-02-19T11:15:42;12.50;;;3.80;;
57325;SDS011;43161;50.950;18.224;2023-02-19T11:23:22;41.50;;;14.90;;
57325;SDS011;43161;50.950;18.224;2023-02-19T11:25:53;11.20;;;4.10;;
57325;SDS011;43161;50.950;18.224;2023-02-19T11:30:55;14.50;;;6.00;;
57325;SDS011;43161;50.950;18.224;2023-02-19T11:33:42;16.10;;;5.90;;
57325;SDS011;43161;50.950;18.224;2023-02-19T11:38:52;12.20;;;3.80;;
57325;SDS011;43161;50.950;18.224;2023-02-19T12:01:22;14.10;;;4.20;;
57325;SDS011;43161;50.950;18.224;2023-02-19T12:09:35;13.50;;;3.60;;
57325;SDS011;43161;50.950;18.224;2023-02-19T12:39:41;11.30;;;3.70;;
57325;SDS011;43161;50.950;18.224;2023-02-19T12:44:52;11.00;;;4.50;;
57325;SDS011;43161;50.950;18.224;2023-02-19T12:47:22;14.80;;;5.50;;
57325;SDS011;43161;50.950;18.224;2023-02-19T12:52:54;14.80;;;4.70;;
57325;SDS011;43161;50.950;18.224;2023-02-19T12:55:25;13.20;;;5.20;;
57325;SDS011;43161;50.950;18.224;2023-02-19T12:57:53;23.00;;;8.70;;
57325;SDS011;43161;50.950;18.224;2023-02-19T13:00:27;19.10;;;7.00;;
57325;SDS011;43161;50.950;18.224;2023-02-19T13:10:50;18.20;;;8.30;;
57325;SDS011;43161;50.950;18.224;2023-02-19T13:13:27;18.50;;;6.50;;
57325;SDS011;43161;50.950;18.224;2023-02-19T13:15:59;17.10;;;6.80;;
57325;SDS011;43161;50.950;18.224;2023-02-19T13:18:30;29.60;;;12.40;;
57325;SDS011;43161;50.950;18.224;2023-02-19T13:20:58;22.10;;;9.50;;
57325;SDS011;43161;50.950;18.224;2023-02-19T13:23:32;24.00;;;9.30;;
57325;SDS011;43161;50.950;18.224;2023-02-19T13:37:06;13.60;;;4.50;;
57325;SDS011;43161;50.950;18.224;2023-02-19T13:39:32;13.90;;;4.90;;
57325;SDS011;43161;50.950;18.224;2023-02-19T13:41:58;14.40;;;5.70;;
57325;SDS011;43161;50.950;18.224;2023-02-19T13:44:24;11.60;;;4.00;;
57325;SDS011;43161;50.950;18.224;2023-02-19T13:46:52;12.30;;;4.30;;
57325;SDS011;43161;50.950;18.224;2023-02-19T13:52:19;14.90;;;4.10;;
57325;SDS011;43161;50.950;18.224;2023-02-19T13:57:52;19.00;;;7.00;;
57325;SDS011;43161;50.950;18.224;2023-02-19T14:06:05;26.60;;;7.10;;
57325;SDS011;43161;50.950;18.224;2023-02-19T14:16:50;15.10;;;4.20;;
57325;SDS011;43161;50.950;18.224;2023-02-19T14:25:32;15.20;;;4.60;;
57325;SDS011;43161;50.950;18.224;2023-02-19T14:33:21;15.20;;;5.10;;
57325;SDS011;43161;50.950;18.224;2023-02-19T14:35:50;12.70;;;4.40;;
57325;SDS011;43161;50.950;18.224;2023-02-19T14:38:26;33.10;;;10.80;;
57325;SDS011;43161;50.950;18.224;2023-02-19T14:40:54;49.30;;;16.70;;
57325;SDS011;43161;50.950;18.224;2023-02-19T14:43:21;32.70;;;11.50;;
57325;SDS011;43161;50.950;18.224;2023-02-19T14:45:58;18.20;;;5.20;;
57325;SDS011;43161;50.950;18.224;2023-02-19T14:48:27;17.90;;;5.30;;
57325;SDS011;43161;50.950;18.224;2023-02-19T14:53:46;37.10;;;12.20;;
57325;SDS011;43161;50.950;18.224;2023-02-19T14:56:17;32.00;;;11.80;;
57325;SDS011;43161;50.950;18.224;2023-02-19T14:58:46;19.10;;;5.70;;
57325;SDS011;43161;50.950;18.224;2023-02-19T15:01:41;24.90;;;8.80;;
57325;SDS011;43161;50.950;18.224;2023-02-19T15:04:17;33.70;;;11.80;;
57325;SDS011;43161;50.950;18.224;2023-02-19T15:06:49;12.50;;;4.60;;
57325;SDS011;43161;50.950;18.224;2023-02-19T15:09:17;28.80;;;9.40;;
57325;SDS011;43161;50.950;18.224;2023-02-19T15:11:44;68.20;;;21.10;;
57325;SDS011;43161;50.950;18.224;2023-02-19T15:14:11;38.20;;;11.00;;
57325;SDS011;43161;50.950;18.224;2023-02-19T15:16:43;70.90;;;22.50;;
57325;SDS011;43161;50.950;18.224;2023-02-19T15:19:11;23.40;;;7.50;;
57325;SDS011;43161;50.950;18.224;2023-02-19T15:21:40;28.10;;;9.50;;
57325;SDS011;43161;50.950;18.224;2023-02-19T15:24:09;20.60;;;7.60;;
57325;SDS011;43161;50.950;18.224;2023-02-19T15:26:38;36.20;;;13.10;;
57325;SDS011;43161;50.950;18.224;2023-02-19T15:29:09;19.10;;;6.50;;
57325;SDS011;43161;50.950;18.224;2023-02-19T15:31:42;26.40;;;9.80;;
57325;SDS011;43161;50.950;18.224;2023-02-19T15:34:19;16.70;;;5.50;;
57325;SDS011;43161;50.950;18.224;2023-02-19T15:36:49;28.80;;;10.50;;
57325;SDS011;43161;50.950;18.224;2023-02-19T15:39:23;17.10;;;5.40;;
57325;SDS011;43161;50.950;18.224;2023-02-19T15:41:53;18.70;;;6.40;;
57325;SDS011;43161;50.950;18.224;2023-02-19T15:47:13;20.70;;;6.30;;
57325;SDS011;43161;50.950;18.224;2023-02-19T15:49:45;18.60;;;6.30;;
57325;SDS011;43161;50.950;18.224;2023-02-19T15:52:19;16.70;;;6.20;;
57325;SDS011;43161;50.950;18.224;2023-02-19T15:54:53;18.60;;;6.40;;
57325;SDS011;43161;50.950;18.224;2023-02-19T15:57:24;19.70;;;7.20;;
57325;SDS011;43161;50.950;18.224;2023-02-19T16:02:28;18.80;;;5.80;;
57325;SDS011;43161;50.950;18.224;2023-02-19T16:04:53;21.40;;;7.50;;
57325;SDS011;43161;50.950;18.224;2023-02-19T16:07:26;20.80;;;6.00;;
57325;SDS011;43161;50.950;18.224;2023-02-19T16:12:55;22.10;;;7.90;;
57325;SDS011;43161;50.950;18.224;2023-02-19T16:15:25;13.30;;;4.40;;
57325;SDS011;43161;50.950;18.224;2023-02-19T16:17:52;13.50;;;4.10;;
57325;SDS011;43161;50.950;18.224;2023-02-19T16:20:26;15.90;;;3.90;;
57325;SDS011;43161;50.950;18.224;2023-02-19T16:22:59;14.50;;;3.50;;
57325;SDS011;43161;50.950;18.224;2023-02-19T16:25:37;13.20;;;3.60;;
57325;SDS011;43161;50.950;18.224;2023-02-19T16:30:55;10.90;;;3.10;;
57325;SDS011;43161;50.950;18.224;2023-02-19T16:41:34;12.80;;;3.20;;
57325;SDS011;43161;50.950;18.224;2023-02-19T16:46:46;12.40;;;3.20;;
57325;SDS011;43161;50.950;18.224;2023-02-19T16:49:13;10.60;;;3.00;;
57325;SDS011;43161;50.950;18.224;2023-02-19T16:51:39;14.50;;;3.00;;
57325;SDS011;43161;50.950;18.224;2023-02-19T16:54:05;12.40;;;3.70;;
57325;SDS011;43161;50.950;18.224;2023-02-19T16:56:31;12.90;;;4.20;;
57325;SDS011;43161;50.950;18.224;2023-02-19T16:58:56;14.10;;;4.30;;
57325;SDS011;43161;50.950;18.224;2023-02-19T17:01:22;15.40;;;4.10;;
57325;SDS011;43161;50.950;18.224;2023-02-19T17:03:48;14.80;;;4.00;;
57325;SDS011;43161;50.950;18.224;2023-02-19T17:06:14;14.50;;;4.20;;
57325;SDS011;43161;50.950;18.224;2023-02-19T17:08:41;15.20;;;4.40;;
57325;SDS011;43161;50.950;18.224;2023-02-19T17:11:12;13.40;;;4.30;;
57325;SDS011;43161;50.950;18.224;2023-02-19T17:13:39;17.30;;;4.40;;
57325;SDS011;43161;50.950;18.224;2023-02-19T17:16:05;13.50;;;4.20;;
57325;SDS011;43161;50.950;18.224;2023-02-19T17:18:31;18.20;;;4.90;;
57325;SDS011;43161;50.950;18.224;2023-02-19T17:23:39;14.60;;;4.60;;
57325;SDS011;43161;50.950;18.224;2023-02-19T17:26:06;15.90;;;4.70;;
57325;SDS011;43161;50.950;18.224;2023-02-19T17:28:38;13.50;;;4.40;;
57325;SDS011;43161;50.950;18.224;2023-02-19T17:31:03;13.30;;;3.70;;
57325;SDS011;43161;50.950;18.224;2023-02-19T17:33:29;14.90;;;3.60;;
57325;SDS011;43161;50.950;18.224;2023-02-19T17:35:55;11.70;;;3.50;;
57325;SDS011;43161;50.950;18.224;2023-02-19T17:38:21;14.20;;;3.60;;
57325;SDS011;43161;50.950;18.224;2023-02-19T17:40:47;11.00;;;3.40;;
57325;SDS011;43161;50.950;18.224;2023-02-19T17:43:12;10.50;;;3.30;;
57325;SDS011;43161;50.950;18.224;2023-02-19T17:45:38;12.00;;;3.20;;
57325;SDS011;43161;50.950;18.224;2023-02-19T17:48:04;13.90;;;3.70;;
57325;SDS011;43161;50.950;18.224;2023-02-19T17:50:31;15.70;;;4.60;;
57325;SDS011;43161;50.950;18.224;2023-02-19T17:52:57;16.70;;;5.50;;
57325;SDS011;43161;50.950;18.224;2023-02-19T17:55:23;17.70;;;5.70;;
57325;SDS011;43161;50.950;18.224;2023-02-19T17:57:50;17.00;;;4.60;;
57325;SDS011;43161;50.950;18.224;2023-02-19T18:00:24;14.90;;;4.60;;
57325;SDS011;43161;50.950;18.224;2023-02-19T18:02:51;17.00;;;5.40;;
57325;SDS011;43161;50.950;18.224;2023-02-19T18:05:17;17.20;;;4.90;;
57325;SDS011;43161;50.950;18.224;2023-02-19T18:07:43;14.50;;;3.30;;